sensor_id;sensor_type;location;lat;lon;timestamp;P1;durP1;ratioP1;P2;durP2;ratioP2
57667;SDS011;43499;52.366;12.912;2023-04-06T00:00:50;6.82;;;3.88;;
57667;SDS011;43499;52.366;12.912;2023-04-06T00:01:51;8.18;;;3.80;;
57667;SDS011;43499;52.366;12.912;2023-04-06T00:02:52;6.78;;;3.92;;
57667;SDS011;43499;52.366;12.912;2023-04-06T00:03:53;7.78;;;4.28;;
57667;SDS011;43499;52.366;12.912;2023-04-06T00:04:54;8.23;;;3.53;;
57667;SDS011;43499;52.366;12.912;2023-04-06T00:05:55;7.65;;;4.05;;
57667;SDS011;43499;52.366;12.912;2023-04-06T00:06:56;6.43;;;4.05;;
57667;SDS011;43499;52.366;12.912;2023-04-06T00:07:58;5.32;;;3.80;;
57667;SDS011;43499;52.366;12.912;2023-04-06T00:08:59;7.35;;;3.85;;
57667;SDS011;43499;52.366;12.912;2023-04-06T00:10:01;8.93;;;4.28;;
57667;SDS011;43499;52.366;12.912;2023-04-06T00:11:03;7.53;;;4.20;;
57667;SDS011;43499;52.366;12.912;2023-04-06T00:12:04;10.00;;;4.80;;
57667;SDS011;43499;52.366;12.912;2023-04-06T00:13:05;7.65;;;4.90;;
57667;SDS011;43499;52.366;12.912;2023-04-06T00:14:07;6.60;;;4.35;;
57667;SDS011;43499;52.366;12.912;2023-04-06T00:15:09;10.27;;;4.55;;
57667;SDS011;43499;52.366;12.912;2023-04-06T00:16:10;9.65;;;5.10;;
57667;SDS011;43499;52.366;12.912;2023-04-06T00:17:11;8.23;;;4.05;;
57667;SDS011;43499;52.366;12.912;2023-04-06T00:18:13;8.55;;;4.45;;
57667;SDS011;43499;52.366;12.912;2023-04-06T00:19:14;8.50;;;4.88;;
57667;SDS011;43499;52.366;12.912;2023-04-06T00:20:15;8.45;;;4.63;;
57667;SDS011;43499;52.366;12.912;2023-04-06T00:21:17;11.63;;;5.13;;
57667;SDS011;43499;52.366;12.912;2023-04-06T00:22:18;9.40;;;5.07;;
57667;SDS011;43499;52.366;12.912;2023-04-06T00:23:19;9.25;;;5.28;;
57667;SDS011;43499;52.366;12.912;2023-04-06T00:24:20;9.25;;;4.07;;
57667;SDS011;43499;52.366;12.912;2023-04-06T00:25:21;14.52;;;5.68;;
57667;SDS011;43499;52.366;12.912;2023-04-06T00:26:23;7.57;;;4.35;;
57667;SDS011;43499;52.366;12.912;2023-04-06T00:27:24;5.72;;;3.95;;
57667;SDS011;43499;52.366;12.912;2023-04-06T00:28:26;9.15;;;4.03;;
57667;SDS011;43499;52.366;12.912;2023-04-06T00:29:27;8.13;;;3.85;;
57667;SDS011;43499;52.366;12.912;2023-04-06T00:30:28;8.38;;;4.10;;
57667;SDS011;43499;52.366;12.912;2023-04-06T00:31:29;7.57;;;4.28;;
57667;SDS011;43499;52.366;12.912;2023-04-06T00:32:30;10.40;;;4.03;;
57667;SDS011;43499;52.366;12.912;2023-04-06T00:33:31;7.03;;;3.90;;
57667;SDS011;43499;52.366;12.912;2023-04-06T00:34:33;9.35;;;4.60;;
57667;SDS011;43499;52.366;12.912;2023-04-06T00:35:34;7.22;;;4.35;;
57667;SDS011;43499;52.366;12.912;2023-04-06T00:36:35;6.95;;;3.85;;
57667;SDS011;43499;52.366;12.912;2023-04-06T00:37:36;5.97;;;3.92;;
57667;SDS011;43499;52.366;12.912;2023-04-06T00:38:37;7.00;;;3.75;;
57667;SDS011;43499;52.366;12.912;2023-04-06T00:39:38;9.93;;;4.60;;
57667;SDS011;43499;52.366;12.912;2023-04-06T00:40:40;7.20;;;3.90;;
57667;SDS011;43499;52.366;12.912;2023-04-06T00:41:43;7.80;;;4.07;;
57667;SDS011;43499;52.366;12.912;2023-04-06T00:42:49;7.43;;;4.28;;
57667;SDS011;43499;52.366;12.912;2023-04-06T00:43:50;6.53;;;3.90;;
57667;SDS011;43499;52.366;12.912;2023-04-06T00:44:52;8.13;;;4.43;;
57667;SDS011;43499;52.366;12.912;2023-04-06T00:45:54;7.55;;;3.75;;
57667;SDS011;43499;52.366;12.912;2023-04-06T00:46:57;12.45;;;4.38;;
57667;SDS011;43499;52.366;12.912;2023-04-06T00:47:58;6.55;;;4.15;;
57667;SDS011;43499;52.366;12.912;2023-04-06T00:49:00;13.73;;;3.85;;
57667;SDS011;43499;52.366;12.912;2023-04-06T00:50:01;10.95;;;4.80;;
57667;SDS011;43499;52.366;12.912;2023-04-06T00:51:02;7.00;;;4.38;;
57667;SDS011;43499;52.366;12.912;2023-04-06T00:52:03;6.85;;;3.53;;
57667;SDS011;43499;52.366;12.912;2023-04-06T00:53:04;9.20;;;4.20;;
57667;SDS011;43499;52.366;12.912;2023-04-06T00:54:05;11.40;;;4.50;;
57667;SDS011;43499;52.366;12.912;2023-04-06T00:55:09;9.18;;;4.07;;
57667;SDS011;43499;52.366;12.912;2023-04-06T00:56:15;8.80;;;3.97;;
57667;SDS011;43499;52.366;12.912;2023-04-06T00:57:24;7.47;;;3.55;;
57667;SDS011;43499;52.366;12.912;2023-04-06T00:58:29;6.72;;;4.22;;
57667;SDS011;43499;52.366;12.912;2023-04-06T00:59:39;6.30;;;4.10;;
57667;SDS011;43499;52.366;12.912;2023-04-06T01:00:43;7.78;;;3.95;;
57667;SDS011;43499;52.366;12.912;2023-04-06T01:01:50;10.25;;;4.20;;
57667;SDS011;43499;52.366;12.912;2023-04-06T01:03:04;7.30;;;4.47;;
57667;SDS011;43499;52.366;12.912;2023-04-06T01:04:13;9.32;;;4.05;;
57667;SDS011;43499;52.366;12.912;2023-04-06T01:05:16;9.57;;;4.75;;
57667;SDS011;43499;52.366;12.912;2023-04-06T01:06:24;7.85;;;3.80;;
57667;SDS011;43499;52.366;12.912;2023-04-06T01:07:32;6.65;;;3.65;;
57667;SDS011;43499;52.366;12.912;2023-04-06T01:08:40;8.07;;;3.72;;
57667;SDS011;43499;52.366;12.912;2023-04-06T01:09:53;8.85;;;3.80;;
57667;SDS011;43499;52.366;12.912;2023-04-06T01:10:59;9.32;;;4.03;;
57667;SDS011;43499;52.366;12.912;2023-04-06T01:12:03;8.80;;;4.35;;
57667;SDS011;43499;52.366;12.912;2023-04-06T01:13:06;6.50;;;3.63;;
57667;SDS011;43499;52.366;12.912;2023-04-06T01:14:27;5.15;;;3.30;;
57667;SDS011;43499;52.366;12.912;2023-04-06T01:15:33;7.13;;;4.28;;
57667;SDS011;43499;52.366;12.912;2023-04-06T01:16:36;7.38;;;3.80;;
57667;SDS011;43499;52.366;12.912;2023-04-06T01:17:43;6.43;;;3.78;;
57667;SDS011;43499;52.366;12.912;2023-04-06T01:18:48;8.98;;;3.78;;
57667;SDS011;43499;52.366;12.912;2023-04-06T01:19:54;10.68;;;4.70;;
57667;SDS011;43499;52.366;12.912;2023-04-06T01:21:00;6.32;;;4.32;;
57667;SDS011;43499;52.366;12.912;2023-04-06T01:22:02;7.82;;;3.95;;
57667;SDS011;43499;52.366;12.912;2023-04-06T01:23:06;7.78;;;4.57;;
57667;SDS011;43499;52.366;12.912;2023-04-06T01:24:08;7.07;;;3.78;;
57667;SDS011;43499;52.366;12.912;2023-04-06T01:25:25;7.90;;;4.15;;
57667;SDS011;43499;52.366;12.912;2023-04-06T01:26:37;8.63;;;4.38;;
57667;SDS011;43499;52.366;12.912;2023-04-06T01:27:42;10.80;;;4.43;;
57667;SDS011;43499;52.366;12.912;2023-04-06T01:28:46;12.15;;;4.50;;
57667;SDS011;43499;52.366;12.912;2023-04-06T01:29:58;8.32;;;3.95;;
57667;SDS011;43499;52.366;12.912;2023-04-06T01:31:16;6.75;;;3.30;;
57667;SDS011;43499;52.366;12.912;2023-04-06T01:32:24;6.72;;;4.30;;
57667;SDS011;43499;52.366;12.912;2023-04-06T01:33:26;8.50;;;4.20;;
57667;SDS011;43499;52.366;12.912;2023-04-06T01:34:35;8.82;;;4.35;;
57667;SDS011;43499;52.366;12.912;2023-04-06T01:35:38;9.93;;;4.47;;
57667;SDS011;43499;52.366;12.912;2023-04-06T01:36:47;7.90;;;3.50;;
57667;SDS011;43499;52.366;12.912;2023-04-06T01:37:57;9.45;;;3.97;;
57667;SDS011;43499;52.366;12.912;2023-04-06T01:39:04;7.72;;;4.32;;
57667;SDS011;43499;52.366;12.912;2023-04-06T01:40:09;9.75;;;3.70;;
57667;SDS011;43499;52.366;12.912;2023-04-06T01:41:17;7.57;;;3.90;;
57667;SDS011;43499;52.366;12.912;2023-04-06T01:42:23;7.38;;;4.10;;
57667;SDS011;43499;52.366;12.912;2023-04-06T01:43:24;8.38;;;4.38;;
57667;SDS011;43499;52.366;12.912;2023-04-06T01:44:35;9.10;;;4.55;;
57667;SDS011;43499;52.366;12.912;2023-04-06T01:45:42;8.32;;;4.00;;
57667;SDS011;43499;52.366;12.912;2023-04-06T01:46:53;9.45;;;4.43;;
57667;SDS011;43499;52.366;12.912;2023-04-06T01:47:54;9.50;;;4.18;;
57667;SDS011;43499;52.366;12.912;2023-04-06T01:48:59;8.30;;;4.20;;
57667;SDS011;43499;52.366;12.912;2023-04-06T01:50:09;6.50;;;3.90;;
57667;SDS011;43499;52.366;12.912;2023-04-06T01:51:16;15.75;;;4.57;;
57667;SDS011;43499;52.366;12.912;2023-04-06T01:52:23;8.30;;;4.47;;
57667;SDS011;43499;52.366;12.912;2023-04-06T01:53:27;10.90;;;4.43;;
57667;SDS011;43499;52.366;12.912;2023-04-06T01:54:34;10.38;;;4.50;;
57667;SDS011;43499;52.366;12.912;2023-04-06T01:55:44;7.18;;;4.85;;
57667;SDS011;43499;52.366;12.912;2023-04-06T01:56:55;8.98;;;5.00;;
57667;SDS011;43499;52.366;12.912;2023-04-06T01:58:19;7.50;;;4.78;;
57667;SDS011;43499;52.366;12.912;2023-04-06T01:59:20;9.30;;;4.45;;
57667;SDS011;43499;52.366;12.912;2023-04-06T02:00:21;10.80;;;4.70;;
57667;SDS011;43499;52.366;12.912;2023-04-06T02:01:27;10.60;;;5.03;;
57667;SDS011;43499;52.366;12.912;2023-04-06T02:02:31;9.20;;;5.00;;
57667;SDS011;43499;52.366;12.912;2023-04-06T02:03:39;10.88;;;4.90;;
57667;SDS011;43499;52.366;12.912;2023-04-06T02:04:44;10.52;;;5.32;;
57667;SDS011;43499;52.366;12.912;2023-04-06T02:05:48;7.35;;;4.80;;
57667;SDS011;43499;52.366;12.912;2023-04-06T02:06:56;11.43;;;5.22;;
57667;SDS011;43499;52.366;12.912;2023-04-06T02:07:59;10.38;;;5.43;;
57667;SDS011;43499;52.366;12.912;2023-04-06T02:09:07;9.05;;;4.78;;
57667;SDS011;43499;52.366;12.912;2023-04-06T02:10:11;9.65;;;5.32;;
57667;SDS011;43499;52.366;12.912;2023-04-06T02:11:13;10.48;;;5.80;;
57667;SDS011;43499;52.366;12.912;2023-04-06T02:12:20;8.75;;;4.90;;
57667;SDS011;43499;52.366;12.912;2023-04-06T02:13:21;11.88;;;5.10;;
57667;SDS011;43499;52.366;12.912;2023-04-06T02:14:25;14.95;;;5.47;;
57667;SDS011;43499;52.366;12.912;2023-04-06T02:15:29;8.50;;;5.13;;
57667;SDS011;43499;52.366;12.912;2023-04-06T02:16:30;14.40;;;5.28;;
57667;SDS011;43499;52.366;12.912;2023-04-06T02:17:31;9.45;;;5.63;;
57667;SDS011;43499;52.366;12.912;2023-04-06T02:18:32;13.45;;;5.00;;
57667;SDS011;43499;52.366;12.912;2023-04-06T02:19:34;6.88;;;5.07;;
57667;SDS011;43499;52.366;12.912;2023-04-06T02:20:35;9.18;;;5.55;;
57667;SDS011;43499;52.366;12.912;2023-04-06T02:21:36;8.88;;;5.10;;
57667;SDS011;43499;52.366;12.912;2023-04-06T02:22:37;9.95;;;5.75;;
57667;SDS011;43499;52.366;12.912;2023-04-06T02:23:38;10.80;;;6.65;;
57667;SDS011;43499;52.366;12.912;2023-04-06T02:24:39;9.35;;;5.28;;
57667;SDS011;43499;52.366;12.912;2023-04-06T02:25:40;8.93;;;4.95;;
57667;SDS011;43499;52.366;12.912;2023-04-06T02:26:41;9.35;;;4.95;;
57667;SDS011;43499;52.366;12.912;2023-04-06T02:27:43;12.07;;;5.63;;
57667;SDS011;43499;52.366;12.912;2023-04-06T02:28:44;14.57;;;5.90;;
57667;SDS011;43499;52.366;12.912;2023-04-06T02:29:45;11.32;;;5.30;;
57667;SDS011;43499;52.366;12.912;2023-04-06T02:30:47;10.50;;;6.00;;
57667;SDS011;43499;52.366;12.912;2023-04-06T02:31:49;10.20;;;5.35;;
57667;SDS011;43499;52.366;12.912;2023-04-06T02:32:50;13.07;;;6.57;;
57667;SDS011;43499;52.366;12.912;2023-04-06T02:33:51;8.40;;;5.25;;
57667;SDS011;43499;52.366;12.912;2023-04-06T02:34:53;12.15;;;5.03;;
57667;SDS011;43499;52.366;12.912;2023-04-06T02:35:55;6.97;;;5.15;;
57667;SDS011;43499;52.366;12.912;2023-04-06T02:36:58;10.98;;;5.18;;
57667;SDS011;43499;52.366;12.912;2023-04-06T02:37:59;8.32;;;5.60;;
57667;SDS011;43499;52.366;12.912;2023-04-06T02:39:00;11.63;;;6.55;;
57667;SDS011;43499;52.366;12.912;2023-04-06T02:40:03;10.38;;;5.78;;
57667;SDS011;43499;52.366;12.912;2023-04-06T02:41:06;10.43;;;5.78;;
57667;SDS011;43499;52.366;12.912;2023-04-06T02:42:07;7.97;;;5.38;;
57667;SDS011;43499;52.366;12.912;2023-04-06T02:43:09;9.27;;;5.88;;
57667;SDS011;43499;52.366;12.912;2023-04-06T02:44:10;9.77;;;5.43;;
57667;SDS011;43499;52.366;12.912;2023-04-06T02:45:15;9.63;;;5.15;;
57667;SDS011;43499;52.366;12.912;2023-04-06T02:46:20;13.40;;;5.63;;
57667;SDS011;43499;52.366;12.912;2023-04-06T02:47:21;9.43;;;5.68;;
57667;SDS011;43499;52.366;12.912;2023-04-06T02:48:25;8.75;;;5.47;;
57667;SDS011;43499;52.366;12.912;2023-04-06T02:49:27;10.00;;;5.90;;
57667;SDS011;43499;52.366;12.912;2023-04-06T02:50:31;10.93;;;6.38;;
57667;SDS011;43499;52.366;12.912;2023-04-06T02:51:36;8.68;;;5.80;;
57667;SDS011;43499;52.366;12.912;2023-04-06T02:52:49;9.73;;;5.78;;
57667;SDS011;43499;52.366;12.912;2023-04-06T02:53:50;15.15;;;6.90;;
57667;SDS011;43499;52.366;12.912;2023-04-06T02:54:51;11.60;;;6.38;;
57667;SDS011;43499;52.366;12.912;2023-04-06T02:55:58;9.23;;;6.20;;
57667;SDS011;43499;52.366;12.912;2023-04-06T02:57:07;9.20;;;5.93;;
57667;SDS011;43499;52.366;12.912;2023-04-06T02:58:13;11.05;;;5.18;;
57667;SDS011;43499;52.366;12.912;2023-04-06T02:59:21;11.40;;;5.55;;
57667;SDS011;43499;52.366;12.912;2023-04-06T03:00:35;11.93;;;6.68;;
57667;SDS011;43499;52.366;12.912;2023-04-06T03:01:36;15.10;;;6.88;;
57667;SDS011;43499;52.366;12.912;2023-04-06T03:02:39;12.77;;;6.20;;
57667;SDS011;43499;52.366;12.912;2023-04-06T03:03:44;11.60;;;6.18;;
57667;SDS011;43499;52.366;12.912;2023-04-06T03:04:53;12.63;;;6.30;;
57667;SDS011;43499;52.366;12.912;2023-04-06T03:06:02;10.90;;;6.73;;
57667;SDS011;43499;52.366;12.912;2023-04-06T03:07:05;9.77;;;6.18;;
57667;SDS011;43499;52.366;12.912;2023-04-06T03:08:10;13.77;;;6.35;;
57667;SDS011;43499;52.366;12.912;2023-04-06T03:09:17;14.27;;;6.93;;
57667;SDS011;43499;52.366;12.912;2023-04-06T03:10:19;14.35;;;7.70;;
57667;SDS011;43499;52.366;12.912;2023-04-06T03:11:21;12.30;;;6.75;;
57667;SDS011;43499;52.366;12.912;2023-04-06T03:12:25;15.93;;;7.25;;
57667;SDS011;43499;52.366;12.912;2023-04-06T03:13:44;13.93;;;7.07;;
57667;SDS011;43499;52.366;12.912;2023-04-06T03:14:45;12.73;;;7.05;;
57667;SDS011;43499;52.366;12.912;2023-04-06T03:15:46;10.80;;;6.53;;
57667;SDS011;43499;52.366;12.912;2023-04-06T03:16:51;10.48;;;6.45;;
57667;SDS011;43499;52.366;12.912;2023-04-06T03:17:55;13.65;;;7.18;;
57667;SDS011;43499;52.366;12.912;2023-04-06T03:19:11;10.80;;;6.43;;
57667;SDS011;43499;52.366;12.912;2023-04-06T03:20:12;14.77;;;6.80;;
57667;SDS011;43499;52.366;12.912;2023-04-06T03:21:13;10.88;;;7.18;;
57667;SDS011;43499;52.366;12.912;2023-04-06T03:22:22;9.32;;;5.90;;
57667;SDS011;43499;52.366;12.912;2023-04-06T03:23:23;13.27;;;6.20;;
57667;SDS011;43499;52.366;12.912;2023-04-06T03:24:29;13.40;;;6.50;;
57667;SDS011;43499;52.366;12.912;2023-04-06T03:25:30;15.63;;;7.32;;
57667;SDS011;43499;52.366;12.912;2023-04-06T03:26:35;9.48;;;6.80;;
57667;SDS011;43499;52.366;12.912;2023-04-06T03:27:40;13.70;;;7.50;;
57667;SDS011;43499;52.366;12.912;2023-04-06T03:28:45;9.32;;;6.68;;
57667;SDS011;43499;52.366;12.912;2023-04-06T03:29:46;11.65;;;6.70;;
57667;SDS011;43499;52.366;12.912;2023-04-06T03:30:51;17.95;;;7.43;;
57667;SDS011;43499;52.366;12.912;2023-04-06T03:31:59;15.15;;;7.53;;
57667;SDS011;43499;52.366;12.912;2023-04-06T03:33:07;10.80;;;6.80;;
57667;SDS011;43499;52.366;12.912;2023-04-06T03:34:16;12.35;;;6.82;;
57667;SDS011;43499;52.366;12.912;2023-04-06T03:35:17;10.85;;;6.97;;
57667;SDS011;43499;52.366;12.912;2023-04-06T03:36:18;13.60;;;7.25;;
57667;SDS011;43499;52.366;12.912;2023-04-06T03:37:19;14.68;;;7.38;;
57667;SDS011;43499;52.366;12.912;2023-04-06T03:38:25;11.68;;;7.03;;
57667;SDS011;43499;52.366;12.912;2023-04-06T03:39:27;13.23;;;7.82;;
57667;SDS011;43499;52.366;12.912;2023-04-06T03:40:28;15.15;;;7.78;;
57667;SDS011;43499;52.366;12.912;2023-04-06T03:41:29;15.10;;;7.70;;
57667;SDS011;43499;52.366;12.912;2023-04-06T03:42:43;13.43;;;7.10;;
57667;SDS011;43499;52.366;12.912;2023-04-06T03:43:47;11.77;;;7.10;;
57667;SDS011;43499;52.366;12.912;2023-04-06T03:44:48;11.38;;;6.93;;
57667;SDS011;43499;52.366;12.912;2023-04-06T03:45:50;11.13;;;7.43;;
57667;SDS011;43499;52.366;12.912;2023-04-06T03:46:51;12.75;;;7.45;;
57667;SDS011;43499;52.366;12.912;2023-04-06T03:47:53;14.52;;;8.18;;
57667;SDS011;43499;52.366;12.912;2023-04-06T03:48:54;13.70;;;7.97;;
57667;SDS011;43499;52.366;12.912;2023-04-06T03:49:58;12.38;;;7.57;;
57667;SDS011;43499;52.366;12.912;2023-04-06T03:50:59;17.27;;;8.27;;
57667;SDS011;43499;52.366;12.912;2023-04-06T03:52:01;14.55;;;8.13;;
57667;SDS011;43499;52.366;12.912;2023-04-06T03:53:03;15.23;;;8.70;;
57667;SDS011;43499;52.366;12.912;2023-04-06T03:54:04;18.17;;;8.15;;
57667;SDS011;43499;52.366;12.912;2023-04-06T03:55:06;17.27;;;7.93;;
57667;SDS011;43499;52.366;12.912;2023-04-06T03:56:07;16.88;;;8.73;;
57667;SDS011;43499;52.366;12.912;2023-04-06T03:57:08;18.67;;;8.43;;
57667;SDS011;43499;52.366;12.912;2023-04-06T03:58:10;15.02;;;8.30;;
57667;SDS011;43499;52.366;12.912;2023-04-06T03:59:11;14.23;;;9.02;;
57667;SDS011;43499;52.366;12.912;2023-04-06T04:00:12;13.68;;;7.93;;
57667;SDS011;43499;52.366;12.912;2023-04-06T04:01:14;17.25;;;8.38;;
57667;SDS011;43499;52.366;12.912;2023-04-06T04:02:15;16.95;;;8.77;;
57667;SDS011;43499;52.366;12.912;2023-04-06T04:03:16;16.08;;;9.18;;
57667;SDS011;43499;52.366;12.912;2023-04-06T04:04:17;12.32;;;8.43;;
57667;SDS011;43499;52.366;12.912;2023-04-06T04:05:18;17.58;;;8.93;;
57667;SDS011;43499;52.366;12.912;2023-04-06T04:06:19;15.55;;;8.20;;
57667;SDS011;43499;52.366;12.912;2023-04-06T04:07:20;14.50;;;7.70;;
57667;SDS011;43499;52.366;12.912;2023-04-06T04:08:23;12.35;;;7.85;;
57667;SDS011;43499;52.366;12.912;2023-04-06T04:09:25;16.52;;;9.80;;
57667;SDS011;43499;52.366;12.912;2023-04-06T04:10:26;15.65;;;9.02;;
57667;SDS011;43499;52.366;12.912;2023-04-06T04:11:27;16.67;;;8.30;;
57667;SDS011;43499;52.366;12.912;2023-04-06T04:12:32;12.60;;;7.88;;
57667;SDS011;43499;52.366;12.912;2023-04-06T04:13:33;14.95;;;8.30;;
57667;SDS011;43499;52.366;12.912;2023-04-06T04:14:38;16.38;;;8.00;;
57667;SDS011;43499;52.366;12.912;2023-04-06T04:15:39;18.40;;;9.23;;
57667;SDS011;43499;52.366;12.912;2023-04-06T04:16:40;15.60;;;8.50;;
57667;SDS011;43499;52.366;12.912;2023-04-06T04:17:42;16.58;;;8.40;;
57667;SDS011;43499;52.366;12.912;2023-04-06T04:18:47;17.67;;;9.38;;
57667;SDS011;43499;52.366;12.912;2023-04-06T04:19:49;15.80;;;8.38;;
57667;SDS011;43499;52.366;12.912;2023-04-06T04:20:50;13.15;;;7.85;;
57667;SDS011;43499;52.366;12.912;2023-04-06T04:21:53;16.70;;;8.60;;
57667;SDS011;43499;52.366;12.912;2023-04-06T04:23:02;15.90;;;8.90;;
57667;SDS011;43499;52.366;12.912;2023-04-06T04:24:07;13.48;;;8.32;;
57667;SDS011;43499;52.366;12.912;2023-04-06T04:25:10;16.30;;;9.13;;
57667;SDS011;43499;52.366;12.912;2023-04-06T04:26:17;15.30;;;8.45;;
57667;SDS011;43499;52.366;12.912;2023-04-06T04:27:20;15.75;;;9.02;;
57667;SDS011;43499;52.366;12.912;2023-04-06T04:28:23;21.27;;;9.88;;
57667;SDS011;43499;52.366;12.912;2023-04-06T04:29:28;14.88;;;9.30;;
57667;SDS011;43499;52.366;12.912;2023-04-06T04:30:34;16.95;;;9.32;;
57667;SDS011;43499;52.366;12.912;2023-04-06T04:31:36;17.27;;;8.88;;
57667;SDS011;43499;52.366;12.912;2023-04-06T04:32:40;23.90;;;10.10;;
57667;SDS011;43499;52.366;12.912;2023-04-06T04:33:43;15.52;;;9.10;;
57667;SDS011;43499;52.366;12.912;2023-04-06T04:34:50;17.10;;;9.35;;
57667;SDS011;43499;52.366;12.912;2023-04-06T04:36:05;19.58;;;9.38;;
57667;SDS011;43499;52.366;12.912;2023-04-06T04:37:13;17.02;;;9.23;;
57667;SDS011;43499;52.366;12.912;2023-04-06T04:38:27;19.05;;;9.43;;
57667;SDS011;43499;52.366;12.912;2023-04-06T04:39:31;22.35;;;9.68;;
57667;SDS011;43499;52.366;12.912;2023-04-06T04:40:37;13.55;;;8.75;;
57667;SDS011;43499;52.366;12.912;2023-04-06T04:41:42;19.92;;;9.48;;
57667;SDS011;43499;52.366;12.912;2023-04-06T04:42:46;25.95;;;9.60;;
57667;SDS011;43499;52.366;12.912;2023-04-06T04:43:54;19.63;;;9.32;;
57667;SDS011;43499;52.366;12.912;2023-04-06T04:44:57;19.35;;;9.27;;
57667;SDS011;43499;52.366;12.912;2023-04-06T04:46:08;19.23;;;9.05;;
57667;SDS011;43499;52.366;12.912;2023-04-06T04:47:13;20.27;;;9.68;;
57667;SDS011;43499;52.366;12.912;2023-04-06T04:48:19;17.75;;;10.70;;
57667;SDS011;43499;52.366;12.912;2023-04-06T04:49:26;19.42;;;10.10;;
57667;SDS011;43499;52.366;12.912;2023-04-06T04:50:27;18.10;;;9.70;;
57667;SDS011;43499;52.366;12.912;2023-04-06T04:51:31;15.98;;;9.70;;
57667;SDS011;43499;52.366;12.912;2023-04-06T04:53:02;18.35;;;9.63;;
57667;SDS011;43499;52.366;12.912;2023-04-06T04:54:06;26.63;;;10.43;;
57667;SDS011;43499;52.366;12.912;2023-04-06T04:55:08;22.90;;;10.60;;
57667;SDS011;43499;52.366;12.912;2023-04-06T04:56:10;14.68;;;9.57;;
57667;SDS011;43499;52.366;12.912;2023-04-06T04:57:11;23.08;;;10.52;;
57667;SDS011;43499;52.366;12.912;2023-04-06T04:58:15;15.50;;;9.57;;
57667;SDS011;43499;52.366;12.912;2023-04-06T04:59:26;17.00;;;9.88;;
57667;SDS011;43499;52.366;12.912;2023-04-06T05:00:35;18.60;;;10.20;;
57667;SDS011;43499;52.366;12.912;2023-04-06T05:01:36;21.30;;;11.10;;
57667;SDS011;43499;52.366;12.912;2023-04-06T05:02:37;18.58;;;9.82;;
57667;SDS011;43499;52.366;12.912;2023-04-06T05:03:47;23.98;;;10.50;;
57667;SDS011;43499;52.366;12.912;2023-04-06T05:04:50;20.52;;;10.63;;
57667;SDS011;43499;52.366;12.912;2023-04-06T05:05:55;18.40;;;9.95;;
57667;SDS011;43499;52.366;12.912;2023-04-06T05:07:03;17.73;;;9.38;;
57667;SDS011;43499;52.366;12.912;2023-04-06T05:09:17;19.45;;;9.82;;
57667;SDS011;43499;52.366;12.912;2023-04-06T05:10:18;19.83;;;10.73;;
57667;SDS011;43499;52.366;12.912;2023-04-06T05:11:27;23.73;;;10.60;;
57667;SDS011;43499;52.366;12.912;2023-04-06T05:12:33;17.85;;;10.48;;
57667;SDS011;43499;52.366;12.912;2023-04-06T05:13:41;19.45;;;10.50;;
57667;SDS011;43499;52.366;12.912;2023-04-06T05:14:48;23.17;;;10.98;;
57667;SDS011;43499;52.366;12.912;2023-04-06T05:15:52;21.38;;;10.75;;
57667;SDS011;43499;52.366;12.912;2023-04-06T05:17:00;19.48;;;9.85;;
57667;SDS011;43499;52.366;12.912;2023-04-06T05:18:01;23.35;;;11.18;;
57667;SDS011;43499;52.366;12.912;2023-04-06T05:19:08;20.60;;;10.93;;
57667;SDS011;43499;52.366;12.912;2023-04-06T05:20:16;22.58;;;11.20;;
57667;SDS011;43499;52.366;12.912;2023-04-06T05:21:22;19.55;;;10.45;;
57667;SDS011;43499;52.366;12.912;2023-04-06T05:22:30;24.30;;;11.63;;
57667;SDS011;43499;52.366;12.912;2023-04-06T05:23:41;22.00;;;10.23;;
57667;SDS011;43499;52.366;12.912;2023-04-06T05:24:43;22.80;;;10.70;;
57667;SDS011;43499;52.366;12.912;2023-04-06T05:25:44;19.35;;;10.70;;
57667;SDS011;43499;52.366;12.912;2023-04-06T05:26:51;22.30;;;10.90;;
57667;SDS011;43499;52.366;12.912;2023-04-06T05:27:57;22.58;;;10.40;;
57667;SDS011;43499;52.366;12.912;2023-04-06T05:29:05;27.02;;;12.75;;
57667;SDS011;43499;52.366;12.912;2023-04-06T05:30:09;21.45;;;11.18;;
57667;SDS011;43499;52.366;12.912;2023-04-06T05:31:16;21.95;;;10.00;;
57667;SDS011;43499;52.366;12.912;2023-04-06T05:32:22;25.10;;;11.00;;
57667;SDS011;43499;52.366;12.912;2023-04-06T05:33:27;20.55;;;10.77;;
57667;SDS011;43499;52.366;12.912;2023-04-06T05:34:37;44.45;;;18.42;;
57667;SDS011;43499;52.366;12.912;2023-04-06T05:35:39;33.33;;;13.93;;
57667;SDS011;43499;52.366;12.912;2023-04-06T05:36:44;46.92;;;17.08;;
57667;SDS011;43499;52.366;12.912;2023-04-06T05:37:53;20.60;;;11.25;;
57667;SDS011;43499;52.366;12.912;2023-04-06T05:38:58;22.67;;;10.38;;
57667;SDS011;43499;52.366;12.912;2023-04-06T05:40:08;24.73;;;10.93;;
57667;SDS011;43499;52.366;12.912;2023-04-06T05:41:10;21.42;;;9.90;;
57667;SDS011;43499;52.366;12.912;2023-04-06T05:42:14;20.13;;;10.65;;
57667;SDS011;43499;52.366;12.912;2023-04-06T05:43:25;27.52;;;12.20;;
57667;SDS011;43499;52.366;12.912;2023-04-06T05:44:29;30.95;;;11.38;;
57667;SDS011;43499;52.366;12.912;2023-04-06T05:45:41;29.58;;;12.90;;
57667;SDS011;43499;52.366;12.912;2023-04-06T05:46:45;27.52;;;11.77;;
57667;SDS011;43499;52.366;12.912;2023-04-06T05:47:49;32.70;;;12.95;;
57667;SDS011;43499;52.366;12.912;2023-04-06T05:48:58;30.83;;;12.20;;
57667;SDS011;43499;52.366;12.912;2023-04-06T05:50:03;65.13;;;21.13;;
57667;SDS011;43499;52.366;12.912;2023-04-06T05:51:07;38.83;;;13.82;;
57667;SDS011;43499;52.366;12.912;2023-04-06T05:52:20;20.70;;;10.45;;
57667;SDS011;43499;52.366;12.912;2023-04-06T05:53:23;19.00;;;10.48;;
57667;SDS011;43499;52.366;12.912;2023-04-06T05:54:29;43.78;;;17.08;;
57667;SDS011;43499;52.366;12.912;2023-04-06T05:55:34;32.10;;;13.45;;
57667;SDS011;43499;52.366;12.912;2023-04-06T05:56:50;23.42;;;11.55;;
57667;SDS011;43499;52.366;12.912;2023-04-06T05:57:51;14.40;;;8.68;;
57667;SDS011;43499;52.366;12.912;2023-04-06T05:58:53;21.10;;;9.43;;
57667;SDS011;43499;52.366;12.912;2023-04-06T06:00:00;19.08;;;9.40;;
57667;SDS011;43499;52.366;12.912;2023-04-06T06:01:13;17.90;;;9.32;;
57667;SDS011;43499;52.366;12.912;2023-04-06T06:02:19;17.45;;;9.15;;
57667;SDS011;43499;52.366;12.912;2023-04-06T06:03:23;16.60;;;8.98;;
57667;SDS011;43499;52.366;12.912;2023-04-06T06:04:30;12.70;;;7.80;;
57667;SDS011;43499;52.366;12.912;2023-04-06T06:05:31;17.60;;;8.77;;
57667;SDS011;43499;52.366;12.912;2023-04-06T06:06:38;15.68;;;9.10;;
57667;SDS011;43499;52.366;12.912;2023-04-06T06:07:47;14.75;;;8.77;;
57667;SDS011;43499;52.366;12.912;2023-04-06T06:08:48;17.23;;;8.98;;
57667;SDS011;43499;52.366;12.912;2023-04-06T06:09:51;15.50;;;9.05;;
57667;SDS011;43499;52.366;12.912;2023-04-06T06:10:57;17.88;;;8.95;;
57667;SDS011;43499;52.366;12.912;2023-04-06T06:12:00;21.30;;;9.15;;
57667;SDS011;43499;52.366;12.912;2023-04-06T06:13:03;12.82;;;8.93;;
57667;SDS011;43499;52.366;12.912;2023-04-06T06:14:04;19.42;;;9.55;;
57667;SDS011;43499;52.366;12.912;2023-04-06T06:15:09;16.52;;;9.27;;
57667;SDS011;43499;52.366;12.912;2023-04-06T06:16:15;17.73;;;9.73;;
57667;SDS011;43499;52.366;12.912;2023-04-06T06:17:19;15.50;;;9.57;;
57667;SDS011;43499;52.366;12.912;2023-04-06T06:18:22;27.58;;;9.35;;
57667;SDS011;43499;52.366;12.912;2023-04-06T06:19:26;14.50;;;8.40;;